sensor_id;sensor_type;location;lat;lon;timestamp;pressure;altitude;pressure_sealevel;temperature;humidity
77975;BME280;67164;51.202;0.278;2023-05-07T00:01:45;101142.68;;;23.05;50.34
77975;BME280;67164;51.202;0.278;2023-05-07T00:04:11;101143.17;;;23.03;50.28
77975;BME280;67164;51.202;0.278;2023-05-07T00:06:37;101144.77;;;23.04;50.04
77975;BME280;67164;51.202;0.278;2023-05-07T00:09:03;101140.59;;;23.03;49.95
77975;BME280;67164;51.202;0.278;2023-05-07T00:11:29;101139.96;;;23.00;49.95
77975;BME280;67164;51.202;0.278;2023-05-07T00:13:54;101142.94;;;22.98;49.89
77975;BME280;67164;51.202;0.278;2023-05-07T00:16:20;101141.98;;;22.95;49.88
77975;BME280;67164;51.202;0.278;2023-05-07T00:18:46;101140.18;;;23.37;49.91
77975;BME280;67164;51.202;0.278;2023-05-07T00:21:12;101135.07;;;23.09;49.90
77975;BME280;67164;51.202;0.278;2023-05-07T00:23:37;101132.21;;;22.82;49.93
77975;BME280;67164;51.202;0.278;2023-05-07T00:26:03;101130.21;;;22.83;49.92
77975;BME280;67164;51.202;0.278;2023-05-07T00:28:29;101131.47;;;22.77;49.95
77975;BME280;67164;51.202;0.278;2023-05-07T00:30:55;101132.88;;;22.78;49.92
77975;BME280;67164;51.202;0.278;2023-05-07T00:33:21;101138.81;;;22.74;49.81
77975;BME280;67164;51.202;0.278;2023-05-07T00:35:51;101139.93;;;22.74;49.87
77975;BME280;67164;51.202;0.278;2023-05-07T00:38:12;101137.61;;;22.75;49.79
77975;BME280;67164;51.202;0.278;2023-05-07T00:40:38;101144.28;;;22.73;49.79
77975;BME280;67164;51.202;0.278;2023-05-07T00:43:04;101146.58;;;22.74;49.74
77975;BME280;67164;51.202;0.278;2023-05-07T00:45:29;101142.93;;;22.72;49.74
77975;BME280;67164;51.202;0.278;2023-05-07T00:47:57;101136.72;;;23.20;49.67
77975;BME280;67164;51.202;0.278;2023-05-07T00:50:21;101137.39;;;23.17;49.67
77975;BME280;67164;51.202;0.278;2023-05-07T00:52:47;101134.68;;;22.91;49.62
77975;BME280;67164;51.202;0.278;2023-05-07T00:55:13;101140.39;;;22.64;49.56
77975;BME280;67164;51.202;0.278;2023-05-07T00:57:40;101141.25;;;22.85;49.63
77975;BME280;67164;51.202;0.278;2023-05-07T01:00:06;101143.63;;;22.62;49.53
77975;BME280;67164;51.202;0.278;2023-05-07T01:02:30;101143.77;;;22.54;49.52
77975;BME280;67164;51.202;0.278;2023-05-07T01:04:56;101139.79;;;22.76;49.56
77975;BME280;67164;51.202;0.278;2023-05-07T01:07:22;101137.39;;;22.81;49.45
77975;BME280;67164;51.202;0.278;2023-05-07T01:09:47;101133.50;;;22.64;49.32
77975;BME280;67164;51.202;0.278;2023-05-07T01:12:13;101130.12;;;22.66;49.21
77975;BME280;67164;51.202;0.278;2023-05-07T01:14:38;101127.11;;;22.64;49.14
77975;BME280;67164;51.202;0.278;2023-05-07T01:17:04;101125.23;;;22.59;49.15
77975;BME280;67164;51.202;0.278;2023-05-07T01:19:30;101128.32;;;22.62;49.12
77975;BME280;67164;51.202;0.278;2023-05-07T01:22:01;101126.98;;;22.59;49.10
77975;BME280;67164;51.202;0.278;2023-05-07T01:24:22;101128.45;;;22.59;49.04
77975;BME280;67164;51.202;0.278;2023-05-07T01:26:47;101128.82;;;22.77;49.03
77975;BME280;67164;51.202;0.278;2023-05-07T01:29:13;101128.97;;;22.74;49.10
77975;BME280;67164;51.202;0.278;2023-05-07T01:31:40;101131.92;;;22.71;49.12
77975;BME280;67164;51.202;0.278;2023-05-07T01:34:07;101132.14;;;22.44;49.14
77975;BME280;67164;51.202;0.278;2023-05-07T01:36:31;101134.87;;;22.45;49.08
77975;BME280;67164;51.202;0.278;2023-05-07T01:38:57;101133.33;;;22.68;49.04
77975;BME280;67164;51.202;0.278;2023-05-07T01:41:29;101131.00;;;22.65;49.08
77975;BME280;67164;51.202;0.278;2023-05-07T01:43:55;101133.99;;;22.63;49.08
77975;BME280;67164;51.202;0.278;2023-05-07T01:46:14;101136.44;;;22.34;49.12
77975;BME280;67164;51.202;0.278;2023-05-07T01:48:40;101135.12;;;22.53;49.14
77975;BME280;67164;51.202;0.278;2023-05-07T01:51:06;101134.50;;;22.53;49.13
77975;BME280;67164;51.202;0.278;2023-05-07T01:53:36;101131.97;;;22.27;49.13
77975;BME280;67164;51.202;0.278;2023-05-07T01:55:57;101129.91;;;22.48;49.20
77975;BME280;67164;51.202;0.278;2023-05-07T01:58:24;101128.46;;;22.50;49.13
77975;BME280;67164;51.202;0.278;2023-05-07T02:00:51;101128.70;;;22.25;49.16
77975;BME280;67164;51.202;0.278;2023-05-07T02:03:15;101130.01;;;22.72;49.13
77975;BME280;67164;51.202;0.278;2023-05-07T02:05:40;101130.49;;;22.49;49.03
77975;BME280;67164;51.202;0.278;2023-05-07T02:08:06;101134.64;;;22.43;49.09
77975;BME280;67164;51.202;0.278;2023-05-07T02:10:32;101135.15;;;22.38;49.18
77975;BME280;67164;51.202;0.278;2023-05-07T02:12:57;101134.18;;;22.35;49.18
77975;BME280;67164;51.202;0.278;2023-05-07T02:15:23;101138.04;;;22.59;49.19
77975;BME280;67164;51.202;0.278;2023-05-07T02:17:59;101139.84;;;22.35;49.19
77975;BME280;67164;51.202;0.278;2023-05-07T02:20:20;101144.20;;;22.60;49.10
77975;BME280;67164;51.202;0.278;2023-05-07T02:22:40;101145.19;;;22.35;49.13
77975;BME280;67164;51.202;0.278;2023-05-07T02:25:07;101145.31;;;22.32;49.15
77975;BME280;67164;51.202;0.278;2023-05-07T02:27:32;101145.69;;;22.06;49.16
77975;BME280;67164;51.202;0.278;2023-05-07T02:29:57;101143.84;;;22.53;49.16
77975;BME280;67164;51.202;0.278;2023-05-07T02:32:23;101141.27;;;22.49;49.19
77975;BME280;67164;51.202;0.278;2023-05-07T02:34:50;101139.37;;;22.72;49.17
77975;BME280;67164;51.202;0.278;2023-05-07T02:37:15;101140.28;;;22.48;49.20
77975;BME280;67164;51.202;0.278;2023-05-07T02:39:41;101139.11;;;21.97;49.25
77975;BME280;67164;51.202;0.278;2023-05-07T02:42:07;101139.74;;;22.20;49.19
77975;BME280;67164;51.202;0.278;2023-05-07T02:44:32;101140.41;;;22.43;49.19
77975;BME280;67164;51.202;0.278;2023-05-07T02:46:58;101142.60;;;22.41;49.22
77975;BME280;67164;51.202;0.278;2023-05-07T02:49:24;101141.74;;;22.39;49.21
77975;BME280;67164;51.202;0.278;2023-05-07T02:51:49;101148.15;;;22.40;49.16
77975;BME280;67164;51.202;0.278;2023-05-07T02:54:15;101154.27;;;22.39;49.17
77975;BME280;67164;51.202;0.278;2023-05-07T02:56:41;101154.10;;;22.39;49.18
77975;BME280;67164;51.202;0.278;2023-05-07T02:59:07;101157.33;;;22.40;49.13
77975;BME280;67164;51.202;0.278;2023-05-07T03:01:32;101160.79;;;22.40;49.11
77975;BME280;67164;51.202;0.278;2023-05-07T03:03:58;101160.44;;;22.37;49.15
77975;BME280;67164;51.202;0.278;2023-05-07T03:06:24;101157.77;;;22.36;49.15
77975;BME280;67164;51.202;0.278;2023-05-07T03:08:49;101157.37;;;22.35;49.13
77975;BME280;67164;51.202;0.278;2023-05-07T03:11:15;101159.16;;;22.10;49.13
77975;BME280;67164;51.202;0.278;2023-05-07T03:13:41;101161.91;;;22.08;49.15
77975;BME280;67164;51.202;0.278;2023-05-07T03:16:07;101158.18;;;22.32;49.11
77975;BME280;67164;51.202;0.278;2023-05-07T03:18:33;101159.17;;;22.36;49.03
77975;BME280;67164;51.202;0.278;2023-05-07T03:20:58;101155.48;;;22.34;49.05
77975;BME280;67164;51.202;0.278;2023-05-07T03:23:24;101156.39;;;22.36;49.00
77975;BME280;67164;51.202;0.278;2023-05-07T03:25:50;101154.64;;;22.10;49.03
77975;BME280;67164;51.202;0.278;2023-05-07T03:28:16;101157.02;;;22.35;48.99
77975;BME280;67164;51.202;0.278;2023-05-07T03:30:41;101158.95;;;22.33;49.00
77975;BME280;67164;51.202;0.278;2023-05-07T03:33:08;101158.74;;;22.33;49.00
77975;BME280;67164;51.202;0.278;2023-05-07T03:35:33;101158.74;;;22.07;48.98
77975;BME280;67164;51.202;0.278;2023-05-07T03:37:59;101158.28;;;22.29;48.99
77975;BME280;67164;51.202;0.278;2023-05-07T03:40:25;101162.64;;;22.31;48.92
77975;BME280;67164;51.202;0.278;2023-05-07T03:42:50;101166.42;;;22.26;48.98
77975;BME280;67164;51.202;0.278;2023-05-07T03:45:16;101165.86;;;22.25;48.99
77975;BME280;67164;51.202;0.278;2023-05-07T03:47:42;101160.37;;;22.24;48.96
77975;BME280;67164;51.202;0.278;2023-05-07T03:50:09;101159.32;;;22.20;48.98
77975;BME280;67164;51.202;0.278;2023-05-07T03:52:33;101159.98;;;22.20;48.97
77975;BME280;67164;51.202;0.278;2023-05-07T03:55:00;101161.82;;;22.19;48.95
77975;BME280;67164;51.202;0.278;2023-05-07T03:57:25;101159.83;;;22.17;48.95
77975;BME280;67164;51.202;0.278;2023-05-07T03:59:51;101160.85;;;22.16;48.94
77975;BME280;67164;51.202;0.278;2023-05-07T04:02:17;101160.03;;;22.15;48.93
77975;BME280;67164;51.202;0.278;2023-05-07T04:04:42;101162.27;;;22.37;48.93
77975;BME280;67164;51.202;0.278;2023-05-07T04:07:08;101162.45;;;22.13;48.87
77975;BME280;67164;51.202;0.278;2023-05-07T04:09:34;101167.88;;;22.11;48.89
77975;BME280;67164;51.202;0.278;2023-05-07T04:12:00;101171.76;;;22.10;48.87
77975;BME280;67164;51.202;0.278;2023-05-07T04:14:25;101171.85;;;22.07;48.91
77975;BME280;67164;51.202;0.278;2023-05-07T04:16:51;101172.33;;;22.07;48.91
77975;BME280;67164;51.202;0.278;2023-05-07T04:19:17;101174.16;;;22.07;48.84
77975;BME280;67164;51.202;0.278;2023-05-07T04:21:43;101181.02;;;22.29;48.82
77975;BME280;67164;51.202;0.278;2023-05-07T04:24:09;101183.15;;;22.06;48.79
77975;BME280;67164;51.202;0.278;2023-05-07T04:26:34;101183.19;;;22.08;48.75
77975;BME280;67164;51.202;0.278;2023-05-07T04:29:00;101187.03;;;22.08;48.75
77975;BME280;67164;51.202;0.278;2023-05-07T04:31:26;101195.35;;;21.82;48.75
77975;BME280;67164;51.202;0.278;2023-05-07T04:33:52;101195.94;;;22.01;48.78
77975;BME280;67164;51.202;0.278;2023-05-07T04:36:18;101196.75;;;22.25;48.77
77975;BME280;67164;51.202;0.278;2023-05-07T04:38:43;101200.73;;;22.06;48.68
77975;BME280;67164;51.202;0.278;2023-05-07T04:41:12;101203.49;;;22.04;48.70
77975;BME280;67164;51.202;0.278;2023-05-07T04:43:35;101207.11;;;21.98;48.74
77975;BME280;67164;51.202;0.278;2023-05-07T04:46:01;101209.77;;;21.99;48.74
77975;BME280;67164;51.202;0.278;2023-05-07T04:48:27;101210.52;;;21.99;48.71
77975;BME280;67164;51.202;0.278;2023-05-07T04:50:52;101214.36;;;22.17;48.76
77975;BME280;67164;51.202;0.278;2023-05-07T04:53:19;101215.71;;;21.69;48.69
77975;BME280;67164;51.202;0.278;2023-05-07T04:55:44;101219.11;;;21.94;48.62
77975;BME280;67164;51.202;0.278;2023-05-07T04:58:10;101228.41;;;22.13;48.74
77975;BME280;67164;51.202;0.278;2023-05-07T05:00:36;101231.10;;;21.89;48.71
77975;BME280;67164;51.202;0.278;2023-05-07T05:03:01;101233.88;;;21.82;48.79
77975;BME280;67164;51.202;0.278;2023-05-07T05:05:26;101231.75;;;22.04;48.77
77975;BME280;67164;51.202;0.278;2023-05-07T05:07:52;101235.94;;;22.06;48.76
77975;BME280;67164;51.202;0.278;2023-05-07T05:10:18;101238.10;;;22.08;48.64
77975;BME280;67164;51.202;0.278;2023-05-07T05:12:44;101244.53;;;21.86;48.60
77975;BME280;67164;51.202;0.278;2023-05-07T05:15:12;101246.24;;;22.04;48.66
77975;BME280;67164;51.202;0.278;2023-05-07T05:17:35;101252.14;;;22.09;48.60
77975;BME280;67164;51.202;0.278;2023-05-07T05:20:01;101258.47;;;21.81;48.60
77975;BME280;67164;51.202;0.278;2023-05-07T05:22:26;101263.60;;;22.03;48.65
77975;BME280;67164;51.202;0.278;2023-05-07T05:24:52;101262.64;;;21.70;48.73
77975;BME280;67164;51.202;0.278;2023-05-07T05:27:18;101260.93;;;21.95;48.69
77975;BME280;67164;51.202;0.278;2023-05-07T05:29:44;101263.74;;;21.71;48.68
77975;BME280;67164;51.202;0.278;2023-05-07T05:32:09;101265.10;;;21.71;48.65
77975;BME280;67164;51.202;0.278;2023-05-07T05:34:35;101265.69;;;21.75;48.57
77975;BME280;67164;51.202;0.278;2023-05-07T05:37:01;101267.73;;;21.74;48.53
77975;BME280;67164;51.202;0.278;2023-05-07T05:39:27;101272.84;;;21.76;48.45
77975;BME280;67164;51.202;0.278;2023-05-07T05:41:52;101272.77;;;21.75;48.43
77975;BME280;67164;51.202;0.278;2023-05-07T05:44:18;101266.50;;;22.01;48.32
77975;BME280;67164;51.202;0.278;2023-05-07T05:46:44;101264.42;;;22.19;48.40
77975;BME280;67164;51.202;0.278;2023-05-07T05:49:10;101263.16;;;21.93;48.39
77975;BME280;67164;51.202;0.278;2023-05-07T05:51:36;101263.55;;;22.16;48.47
77975;BME280;67164;51.202;0.278;2023-05-07T05:54:02;101262.01;;;22.16;48.40
77975;BME280;67164;51.202;0.278;2023-05-07T05:56:28;101263.78;;;21.88;48.47
77975;BME280;67164;51.202;0.278;2023-05-07T05:58:53;101264.03;;;21.89;48.50
77975;BME280;67164;51.202;0.278;2023-05-07T06:01:19;101266.87;;;21.65;48.52
77975;BME280;67164;51.202;0.278;2023-05-07T06:03:45;101268.40;;;21.84;48.45
77975;BME280;67164;51.202;0.278;2023-05-07T06:06:11;101270.54;;;21.75;48.65
77975;BME280;67164;51.202;0.278;2023-05-07T06:08:37;101275.15;;;21.61;48.49
77975;BME280;67164;51.202;0.278;2023-05-07T06:11:02;101280.89;;;21.83;48.47
77975;BME280;67164;51.202;0.278;2023-05-07T06:13:28;101279.21;;;21.54;48.51
77975;BME280;67164;51.202;0.278;2023-05-07T06:15:54;101281.07;;;21.58;48.50
77975;BME280;67164;51.202;0.278;2023-05-07T06:18:19;101282.80;;;21.83;48.32
77975;BME280;67164;51.202;0.278;2023-05-07T06:20:45;101284.68;;;21.68;48.22
77975;BME280;67164;51.202;0.278;2023-05-07T06:23:11;101287.97;;;21.73;48.19
77975;BME280;67164;51.202;0.278;2023-05-07T06:25:37;101293.45;;;21.81;48.16
77975;BME280;67164;51.202;0.278;2023-05-07T06:28:02;101298.48;;;21.83;48.25
77975;BME280;67164;51.202;0.278;2023-05-07T06:30:29;101299.60;;;21.79;48.49
77975;BME280;67164;51.202;0.278;2023-05-07T06:32:54;101291.66;;;22.30;48.51
77975;BME280;67164;51.202;0.278;2023-05-07T06:35:20;101293.93;;;21.83;48.64
77975;BME280;67164;51.202;0.278;2023-05-07T06:37:46;101297.14;;;21.85;48.61
77975;BME280;67164;51.202;0.278;2023-05-07T06:40:12;101300.70;;;21.91;48.71
77975;BME280;67164;51.202;0.278;2023-05-07T06:42:37;101305.34;;;22.21;48.61
77975;BME280;67164;51.202;0.278;2023-05-07T06:45:03;101308.46;;;22.42;48.69
77975;BME280;67164;51.202;0.278;2023-05-07T06:47:29;101312.08;;;22.18;48.80
77975;BME280;67164;51.202;0.278;2023-05-07T06:49:54;101307.31;;;22.13;48.94
77975;BME280;67164;51.202;0.278;2023-05-07T06:52:20;101305.36;;;22.14;48.98
77975;BME280;67164;51.202;0.278;2023-05-07T06:54:46;101305.50;;;21.89;49.03
77975;BME280;67164;51.202;0.278;2023-05-07T06:57:12;101309.18;;;22.12;49.08
77975;BME280;67164;51.202;0.278;2023-05-07T06:59:37;101310.74;;;21.89;48.85
77975;BME280;67164;51.202;0.278;2023-05-07T07:02:03;101313.09;;;21.83;48.80
77975;BME280;67164;51.202;0.278;2023-05-07T07:04:29;101315.21;;;22.04;48.68
77975;BME280;67164;51.202;0.278;2023-05-07T07:06:55;101321.49;;;21.96;48.72
77975;BME280;67164;51.202;0.278;2023-05-07T07:09:21;101323.79;;;22.16;48.69
77975;BME280;67164;51.202;0.278;2023-05-07T07:11:46;101323.35;;;21.91;48.68
77975;BME280;67164;51.202;0.278;2023-05-07T07:14:12;101322.15;;;21.64;48.78
77975;BME280;67164;51.202;0.278;2023-05-07T07:16:37;101325.18;;;21.88;48.74
77975;BME280;67164;51.202;0.278;2023-05-07T07:19:03;101327.20;;;21.88;48.68
77975;BME280;67164;51.202;0.278;2023-05-07T07:21:28;101325.32;;;21.87;48.67
77975;BME280;67164;51.202;0.278;2023-05-07T07:23:54;101326.09;;;21.81;48.75
77975;BME280;67164;51.202;0.278;2023-05-07T07:26:19;101327.87;;;21.99;48.83
77975;BME280;67164;51.202;0.278;2023-05-07T07:28:46;101327.71;;;21.81;48.73
77975;BME280;67164;51.202;0.278;2023-05-07T07:31:11;101325.87;;;21.72;48.85
77975;BME280;67164;51.202;0.278;2023-05-07T07:33:37;101322.27;;;21.58;48.92
77975;BME280;67164;51.202;0.278;2023-05-07T07:36:03;101323.01;;;21.55;48.86
77975;BME280;67164;51.202;0.278;2023-05-07T07:38:29;101330.71;;;21.64;48.70
77975;BME280;67164;51.202;0.278;2023-05-07T07:40:54;101336.14;;;21.88;48.70
77975;BME280;67164;51.202;0.278;2023-05-07T07:43:20;101339.24;;;21.68;48.76
77975;BME280;67164;51.202;0.278;2023-05-07T07:45:46;101341.86;;;22.00;48.72
77975;BME280;67164;51.202;0.278;2023-05-07T07:48:12;101342.55;;;21.74;49.15
77975;BME280;67164;51.202;0.278;2023-05-07T07:50:38;101346.34;;;22.01;49.10
77975;BME280;67164;51.202;0.278;2023-05-07T07:53:03;101347.98;;;21.76;49.20
77975;BME280;67164;51.202;0.278;2023-05-07T07:55:29;101349.07;;;21.74;49.27
77975;BME280;67164;51.202;0.278;2023-05-07T07:57:54;101351.56;;;21.73;49.27
77975;BME280;67164;51.202;0.278;2023-05-07T08:00:20;101350.79;;;22.24;49.23
77975;BME280;67164;51.202;0.278;2023-05-07T08:02:46;101348.12;;;22.03;49.20
77975;BME280;67164;51.202;0.278;2023-05-07T08:05:12;101343.54;;;22.09;49.28
77975;BME280;67164;51.202;0.278;2023-05-07T08:07:37;101341.48;;;21.75;49.40
77975;BME280;67164;51.202;0.278;2023-05-07T08:10:04;101347.53;;;22.27;49.37
77975;BME280;67164;51.202;0.278;2023-05-07T08:12:29;101349.88;;;22.06;49.35
77975;BME280;67164;51.202;0.278;2023-05-07T08:14:55;101351.91;;;21.73;49.40
77975;BME280;67164;51.202;0.278;2023-05-07T08:17:21;101352.73;;;22.21;49.47
77975;BME280;67164;51.202;0.278;2023-05-07T08:19:46;101356.48;;;21.94;49.48
77975;BME280;67164;51.202;0.278;2023-05-07T08:22:12;101359.98;;;21.93;49.60
77975;BME280;67164;51.202;0.278;2023-05-07T08:24:38;101360.69;;;21.73;49.46
77975;BME280;67164;51.202;0.278;2023-05-07T08:27:04;101365.57;;;21.76;49.38
77975;BME280;67164;51.202;0.278;2023-05-07T08:29:30;101366.97;;;21.77;49.46
77975;BME280;67164;51.202;0.278;2023-05-07T08:31:55;101371.91;;;21.65;49.64
77975;BME280;67164;51.202;0.278;2023-05-07T08:34:22;101373.64;;;21.91;49.65
77975;BME280;67164;51.202;0.278;2023-05-07T08:36:47;101373.71;;;21.70;49.64
77975;BME280;67164;51.202;0.278;2023-05-07T08:39:13;101373.12;;;21.75;49.48
77975;BME280;67164;51.202;0.278;2023-05-07T08:41:39;101373.72;;;21.74;49.46
77975;BME280;67164;51.202;0.278;2023-05-07T08:44:06;101379.15;;;21.72;49.50
77975;BME280;67164;51.202;0.278;2023-05-07T08:46:32;101383.54;;;21.79;49.49
77975;BME280;67164;51.202;0.278;2023-05-07T08:48:56;101383.18;;;22.26;49.69
77975;BME280;67164;51.202;0.278;2023-05-07T08:51:22;101388.28;;;21.97;49.64
77975;BME280;67164;51.202;0.278;2023-05-07T08:53:48;101382.48;;;21.98;49.61
77975;BME280;67164;51.202;0.278;2023-05-07T08:56:14;101381.11;;;21.95;49.73
77975;BME280;67164;51.202;0.278;2023-05-07T08:58:39;101381.94;;;21.73;49.79
77975;BME280;67164;51.202;0.278;2023-05-07T09:01:08;101384.86;;;21.96;49.80
77975;BME280;67164;51.202;0.278;2023-05-07T09:03:31;101389.73;;;21.73;49.82
77975;BME280;67164;51.202;0.278;2023-05-07T09:05:56;101392.78;;;21.98;49.78
77975;BME280;67164;51.202;0.278;2023-05-07T09:08:25;101386.27;;;21.97;49.77
77975;BME280;67164;51.202;0.278;2023-05-07T09:10:49;101385.56;;;21.98;49.79
77975;BME280;67164;51.202;0.278;2023-05-07T09:13:16;101388.01;;;22.03;49.89
77975;BME280;67164;51.202;0.278;2023-05-07T09:15:44;101389.41;;;22.09;49.74
77975;BME280;67164;51.202;0.278;2023-05-07T09:18:06;101390.26;;;22.04;49.93
77975;BME280;67164;51.202;0.278;2023-05-07T09:20:31;101392.34;;;21.73;50.10
77975;BME280;67164;51.202;0.278;2023-05-07T09:23:06;101392.95;;;21.83;49.96
77975;BME280;67164;51.202;0.278;2023-05-07T09:25:28;101394.52;;;22.16;49.68
77975;BME280;67164;51.202;0.278;2023-05-07T09:27:48;101401.17;;;21.78;49.49
77975;BME280;67164;51.202;0.278;2023-05-07T09:30:20;101404.42;;;21.70;50.10
77975;BME280;67164;51.202;0.278;2023-05-07T09:32:40;101412.09;;;21.93;50.24
77975;BME280;67164;51.202;0.278;2023-05-07T09:35:08;101417.53;;;21.93;50.03
77975;BME280;67164;51.202;0.278;2023-05-07T09:37:32;101425.32;;;21.57;51.37
77975;BME280;67164;51.202;0.278;2023-05-07T09:39:58;101427.19;;;21.48;51.66
77975;BME280;67164;51.202;0.278;2023-05-07T09:42:24;101425.49;;;21.38;52.44
77975;BME280;67164;51.202;0.278;2023-05-07T09:44:48;101425.84;;;21.12;52.61
77975;BME280;67164;51.202;0.278;2023-05-07T09:47:18;101428.17;;;21.35;53.55
77975;BME280;67164;51.202;0.278;2023-05-07T09:49:40;101430.95;;;21.56;53.55
77975;BME280;67164;51.202;0.278;2023-05-07T09:52:06;101431.90;;;21.45;53.83
77975;BME280;67164;51.202;0.278;2023-05-07T09:54:32;101430.45;;;21.29;54.31
77975;BME280;67164;51.202;0.278;2023-05-07T09:56:58;101429.89;;;21.48;54.28
77975;BME280;67164;51.202;0.278;2023-05-07T09:59:23;101433.12;;;21.77;54.40
77975;BME280;67164;51.202;0.278;2023-05-07T10:01:51;101435.58;;;21.33;54.50
77975;BME280;67164;51.202;0.278;2023-05-07T10:04:15;101435.48;;;21.72;54.03
77975;BME280;67164;51.202;0.278;2023-05-07T10:06:41;101440.01;;;21.42;54.67
77975;BME280;67164;51.202;0.278;2023-05-07T10:09:07;101445.02;;;21.52;53.51
77975;BME280;67164;51.202;0.278;2023-05-07T10:11:32;101452.13;;;21.60;54.75
77975;BME280;67164;51.202;0.278;2023-05-07T10:13:58;101453.69;;;21.61;54.77
77975;BME280;67164;51.202;0.278;2023-05-07T10:16:25;101456.21;;;21.45;54.83
77975;BME280;67164;51.202;0.278;2023-05-07T10:18:50;101458.89;;;21.60;55.85
77975;BME280;67164;51.202;0.278;2023-05-07T10:21:17;101459.98;;;21.62;56.14
77975;BME280;67164;51.202;0.278;2023-05-07T10:23:42;101463.69;;;21.64;55.84
77975;BME280;67164;51.202;0.278;2023-05-07T10:26:08;101465.10;;;22.04;54.69
77975;BME280;67164;51.202;0.278;2023-05-07T10:28:36;101467.35;;;22.08;54.52
77975;BME280;67164;51.202;0.278;2023-05-07T10:31:08;101472.49;;;22.13;54.31
77975;BME280;67164;51.202;0.278;2023-05-07T10:33:27;101472.79;;;22.29;54.23
77975;BME280;67164;51.202;0.278;2023-05-07T10:35:50;101475.24;;;22.22;53.84
77975;BME280;67164;51.202;0.278;2023-05-07T10:38:16;101474.27;;;22.25;53.68
77975;BME280;67164;51.202;0.278;2023-05-07T10:40:41;101475.76;;;22.23;53.83
77975;BME280;67164;51.202;0.278;2023-05-07T10:43:07;101471.70;;;22.23;53.94
77975;BME280;67164;51.202;0.278;2023-05-07T10:45:33;101474.48;;;22.03;53.61
77975;BME280;67164;51.202;0.278;2023-05-07T10:48:08;101476.98;;;22.14;53.74
77975;BME280;67164;51.202;0.278;2023-05-07T10:50:24;101479.38;;;21.41;55.52
77975;BME280;67164;51.202;0.278;2023-05-07T10:55:21;101481.09;;;22.27;54.50
77975;BME280;67164;51.202;0.278;2023-05-07T10:57:41;101475.27;;;22.12;53.48
77975;BME280;67164;51.202;0.278;2023-05-07T11:07:27;101487.85;;;21.77;55.42
77975;BME280;67164;51.202;0.278;2023-05-07T11:10:00;101487.48;;;21.56;56.30
77975;BME280;67164;51.202;0.278;2023-05-07T11:12:15;101488.95;;;21.71;55.79
77975;BME280;67164;51.202;0.278;2023-05-07T11:14:44;101491.22;;;21.88;55.50
77975;BME280;67164;51.202;0.278;2023-05-07T11:17:07;101490.88;;;21.58;55.60
77975;BME280;67164;51.202;0.278;2023-05-07T11:19:48;101492.49;;;22.09;54.65
77975;BME280;67164;51.202;0.278;2023-05-07T11:21:58;101492.11;;;22.38;53.70
77975;BME280;67164;51.202;0.278;2023-05-07T11:24:24;101494.51;;;22.14;53.52
77975;BME280;67164;51.202;0.278;2023-05-07T11:26:49;101493.33;;;22.12;53.54
77975;BME280;67164;51.202;0.278;2023-05-07T11:29:17;101493.69;;;22.30;53.39
77975;BME280;67164;51.202;0.278;2023-05-07T11:31:41;101490.47;;;22.29;53.55
77975;BME280;67164;51.202;0.278;2023-05-07T11:34:06;101485.06;;;22.24;53.38
77975;BME280;67164;51.202;0.278;2023-05-07T11:36:33;101483.00;;;22.32;53.24
77975;BME280;67164;51.202;0.278;2023-05-07T11:38:58;101480.89;;;22.30;53.18
77975;BME280;67164;51.202;0.278;2023-05-07T11:41:33;101487.50;;;22.26;53.02
77975;BME280;67164;51.202;0.278;2023-05-07T11:43:57;101491.16;;;22.31;52.89
77975;BME280;67164;51.202;0.278;2023-05-07T11:46:15;101497.87;;;22.23;52.89
77975;BME280;67164;51.202;0.278;2023-05-07T11:48:40;101502.82;;;22.24;52.80
77975;BME280;67164;51.202;0.278;2023-05-07T11:51:07;101507.43;;;22.30;52.55
77975;BME280;67164;51.202;0.278;2023-05-07T11:53:36;101510.36;;;22.31;52.49
77975;BME280;67164;51.202;0.278;2023-05-07T11:55:58;101512.12;;;22.31;52.43
77975;BME280;67164;51.202;0.278;2023-05-07T11:58:24;101509.87;;;22.28;52.51
77975;BME280;67164;51.202;0.278;2023-05-07T12:00:49;101510.81;;;22.23;52.51
77975;BME280;67164;51.202;0.278;2023-05-07T12:03:15;101516.28;;;22.28;52.53
77975;BME280;67164;51.202;0.278;2023-05-07T12:05:40;101515.17;;;22.27;52.48
77975;BME280;67164;51.202;0.278;2023-05-07T12:08:06;101518.28;;;22.34;52.33
77975;BME280;67164;51.202;0.278;2023-05-07T12:10:32;101519.72;;;22.06;52.38
77975;BME280;67164;51.202;0.278;2023-05-07T12:12:58;101524.61;;;22.11;52.30
77975;BME280;67164;51.202;0.278;2023-05-07T12:15:23;101524.73;;;22.35;52.24
77975;BME280;67164;51.202;0.278;2023-05-07T12:17:49;101526.29;;;22.31;52.33
77975;BME280;67164;51.202;0.278;2023-05-07T12:20:15;101523.92;;;22.04;52.99
77975;BME280;67164;51.202;0.278;2023-05-07T12:22:41;101520.67;;;22.44;52.48
77975;BME280;67164;51.202;0.278;2023-05-07T12:25:07;101521.82;;;22.02;52.38
77975;BME280;67164;51.202;0.278;2023-05-07T12:27:32;101526.06;;;21.89;52.14
77975;BME280;67164;51.202;0.278;2023-05-07T12:29:58;101524.35;;;22.10;52.12
77975;BME280;67164;51.202;0.278;2023-05-07T12:32:24;101527.30;;;22.23;52.48
77975;BME280;67164;51.202;0.278;2023-05-07T12:34:51;101528.94;;;22.27;52.32
77975;BME280;67164;51.202;0.278;2023-05-07T12:37:16;101524.34;;;22.34;52.03
77975;BME280;67164;51.202;0.278;2023-05-07T12:39:46;101522.36;;;22.34;51.96
77975;BME280;67164;51.202;0.278;2023-05-07T12:42:07;101516.26;;;22.21;52.20
77975;BME280;67164;51.202;0.278;2023-05-07T12:44:34;101515.64;;;22.26;51.93
77975;BME280;67164;51.202;0.278;2023-05-07T12:47:02;101515.23;;;22.30;51.87
77975;BME280;67164;51.202;0.278;2023-05-07T12:49:24;101513.40;;;22.59;51.76
77975;BME280;67164;51.202;0.278;2023-05-07T12:51:50;101512.79;;;22.34;51.82